Chang Sheng — V3PK — position and weather

sailwx.info

Track history (hours):
 
Tides and Currents Weather Stations Pressure Air Temp Water Temp Dewpoint Dewpoint Depression Visibility Wind Speed Wind Dir Waves Ship Positions

Chang Sheng

Last reported at 2017-Aug-26 11:42 UTC. Time now 2017-Oct-19 18:15 UTC.
Position N 29°51' E 122°46'.
Warning: this ship's position is 54 days out of date.

Length 86 m; draft 4.1 m.

Type: Cargo ship. MMSI: 312161000.

Date/timePositionNaut miles runAvg speedWind from/ knotsBaromVisibWave heightAir tempDewpointWater temp
2017-Aug-26 11:42N 29°51' E 122°46'3 9.2
2017-Aug-26 11:24N 29°49' E 122°44'10 9.2
2017-Aug-26 10:17N 29°41' E 122°36'3 9.2
2017-Aug-26 09:59N 29°39' E 122°35'12 9.5
2017-Aug-26 08:43N 29°28' E 122°28'2 9.8
2017-Aug-26 08:30N 29°26' E 122°27'  
2017-Aug-22 21:03N 29°26' E 122°26'110.0
2017-Aug-22 21:00N 29°27' E 122°26'910.1
2017-Aug-22 20:04N 29°35' E 122°32'110.5
2017-Aug-22 19:58N 29°36' E 122°33'6 9.9
2017-Aug-22 19:20N 29°41' E 122°36'3 9.5
2017-Aug-22 19:00N 29°44' E 122°37'5 9.3
2017-Aug-22 18:28N 29°49' E 122°39'7 9.1
2017-Aug-22 17:41N 29°56' E 122°42'35 7.8
2017-Aug-22 13:10N 30°30' E 122°52'2 8.1
2017-Aug-22 12:57N 30°31' E 122°52'6 7.9
2017-Aug-22 12:13N 30°37' E 122°53'4 9.6
2017-Aug-22 11:50N 30°41' E 122°54'  
2017-Aug-19 11:48N 34°36' E 134°54'411.7
2017-Aug-19 11:27N 34°38' E 134°59'511.9
2017-Aug-19 11:00N 34°36' E 135°05'510.4
2017-Aug-19 10:31N 34°36' E 135°11'510.4
2017-Aug-19 10:00N 34°36' E 135°18'5 9.9
2017-Aug-19 09:30N 34°38' E 135°23'2 4.2
2017-Aug-19 09:00N 34°39' E 135°25'0 0.1
2017-Aug-19 08:30N 34°39' E 135°25'0 0.0
2017-Aug-19 08:00N 34°39' E 135°25'0 0.0
2017-Aug-19 07:30N 34°39' E 135°25'0 0.0
2017-Aug-19 07:00N 34°39' E 135°25'0 0.0
2017-Aug-19 06:30N 34°39' E 135°25'0 0.0
2017-Aug-19 06:00N 34°39' E 135°25'0 0.0
2017-Aug-19 05:31N 34°39' E 135°25'0 0.0
2017-Aug-19 05:00N 34°39' E 135°25'0 0.0
2017-Aug-19 04:30N 34°39' E 135°25'0 0.0
2017-Aug-19 04:00N 34°39' E 135°25'0 0.0
2017-Aug-19 03:31N 34°39' E 135°25'0 0.0
2017-Aug-19 03:00N 34°39' E 135°25'0 0.0
2017-Aug-19 02:30N 34°39' E 135°25'0 0.0
2017-Aug-19 02:00N 34°39' E 135°25'0 0.0
2017-Aug-19 01:30N 34°39' E 135°25'0 0.0
2017-Aug-19 01:00N 34°39' E 135°25'0 0.0
2017-Aug-19 00:30N 34°39' E 135°25'0 0.0
2017-Aug-19 00:00N 34°39' E 135°25'0 0.0
2017-Aug-18 23:30N 34°39' E 135°25'0 0.0
2017-Aug-18 23:00N 34°39' E 135°25'0 0.0
2017-Aug-18 22:31N 34°39' E 135°25'0 0.0
2017-Aug-18 22:01N 34°39' E 135°25'0 0.0
2017-Aug-18 21:30N 34°39' E 135°25'0 0.0
2017-Aug-18 20:51N 34°39' E 135°25'0 0.0
2017-Aug-18 20:30N 34°39' E 135°25'0 0.0
2017-Aug-18 20:00N 34°39' E 135°25'0 0.0
2017-Aug-18 19:30N 34°39' E 135°25'0 0.0
2017-Aug-18 19:00N 34°39' E 135°25'0 0.0
2017-Aug-18 18:30N 34°39' E 135°25'0 0.0
2017-Aug-18 18:00N 34°39' E 135°25'0 0.0
2017-Aug-18 17:30N 34°39' E 135°25'0 0.0
2017-Aug-18 17:00N 34°39' E 135°25'0 0.0
2017-Aug-18 16:30N 34°39' E 135°25'0 0.0
2017-Aug-18 16:00N 34°39' E 135°25'0 0.0
2017-Aug-18 15:30N 34°39' E 135°25'0 0.0
2017-Aug-18 15:00N 34°39' E 135°25'0 0.0
2017-Aug-18 14:30N 34°39' E 135°25'0 0.0
2017-Aug-18 13:30N 34°39' E 135°25'0 0.0
2017-Aug-18 13:00N 34°39' E 135°25'0 0.0
2017-Aug-18 12:31N 34°39' E 135°25'0 0.0
2017-Aug-18 12:00N 34°39' E 135°25'0 0.0
2017-Aug-18 11:31N 34°39' E 135°25'0 0.0
2017-Aug-18 11:01N 34°39' E 135°25'0 0.0
2017-Aug-18 10:31N 34°39' E 135°25'0 0.0
2017-Aug-18 10:00N 34°39' E 135°25'0 0.0
2017-Aug-18 09:31N 34°39' E 135°25'0 0.0
2017-Aug-18 09:00N 34°39' E 135°25'0 0.0
2017-Aug-18 08:30N 34°39' E 135°25'0 0.0
2017-Aug-18 08:00N 34°39' E 135°25'0 0.0
2017-Aug-18 07:30N 34°39' E 135°25'0 0.0
2017-Aug-18 07:00N 34°39' E 135°25'0 0.0
2017-Aug-18 06:30N 34°39' E 135°25'0 0.0
2017-Aug-18 05:59N 34°39' E 135°25'0 0.0
2017-Aug-18 05:30N 34°39' E 135°25'0 0.0
2017-Aug-18 05:00N 34°39' E 135°25'0 0.0
2017-Aug-18 04:30N 34°39' E 135°25'0 0.0
2017-Aug-18 04:00N 34°39' E 135°25'0 0.0
2017-Aug-18 03:29N 34°39' E 135°25'0 0.0
2017-Aug-18 03:00N 34°39' E 135°25'0 0.0
2017-Aug-18 02:28N 34°39' E 135°25'0 0.0
2017-Aug-18 01:54N 34°39' E 135°25'0 0.0
2017-Aug-18 01:30N 34°39' E 135°25'0 0.0
2017-Aug-18 01:00N 34°39' E 135°25'0 0.0
2017-Aug-18 00:30N 34°39' E 135°25'0 0.0
2017-Aug-18 00:01N 34°39' E 135°25'0 0.0
2017-Aug-17 23:30N 34°39' E 135°25'0 0.0
2017-Aug-17 23:01N 34°39' E 135°25'0 0.0
2017-Aug-17 22:30N 34°39' E 135°25'1 2.2
2017-Aug-17 22:00N 34°39' E 135°24'2 3.6
2017-Aug-17 21:30N 34°37' E 135°23'0 0.0
2017-Aug-17 21:01N 34°37' E 135°23'0 0.0
2017-Aug-17 20:30N 34°37' E 135°23'0 0.0
2017-Aug-17 20:00N 34°37' E 135°23'0 0.0
2017-Aug-17 19:30N 34°37' E 135°23'0 0.0
2017-Aug-17 19:01N 34°37' E 135°23'0 0.0
2017-Aug-17 18:30N 34°37' E 135°23'0 0.0
2017-Aug-17 18:01N 34°37' E 135°23'0 0.0
2017-Aug-17 17:30N 34°37' E 135°23'0 0.1
2017-Aug-17 17:01N 34°37' E 135°23'0 0.1
2017-Aug-17 16:31N 34°37' E 135°23'3 6.6
2017-Aug-17 16:00N 34°36' E 135°19'510.5
2017-Aug-17 15:30N 34°35' E 135°13'611.0
2017-Aug-17 15:00N 34°35' E 135°06'611.9
2017-Aug-17 14:27N 34°37' E 134°58'  
Track history (hours):
 
Tides and Currents Weather Stations Pressure Air Temp Water Temp Dewpoint Dewpoint Depression Visibility Wind Speed Wind Dir Waves Ship Positions

Chang Sheng

Last reported at 2017-Aug-26 11:42 UTC. Time now 2017-Oct-19 18:15 UTC.
Position N 29°51' E 122°46'.
Warning: this ship's position is 54 days out of date.

Length 86 m; draft 4.1 m.

Type: Cargo ship. MMSI: 312161000.

Date/timePositionNaut miles runAvg speedWind from/ knotsBaromVisibWave heightAir tempDewpointWater temp
2017-Aug-26 11:42N 29°51' E 122°46'3 9.2
2017-Aug-26 11:24N 29°49' E 122°44'10 9.2
2017-Aug-26 10:17N 29°41' E 122°36'3 9.2
2017-Aug-26 09:59N 29°39' E 122°35'12 9.5
2017-Aug-26 08:43N 29°28' E 122°28'2 9.8
2017-Aug-26 08:30N 29°26' E 122°27'  
2017-Aug-22 21:03N 29°26' E 122°26'110.0
2017-Aug-22 21:00N 29°27' E 122°26'910.1
2017-Aug-22 20:04N 29°35' E 122°32'110.5
2017-Aug-22 19:58N 29°36' E 122°33'6 9.9
2017-Aug-22 19:20N 29°41' E 122°36'3 9.5
2017-Aug-22 19:00N 29°44' E 122°37'5 9.3
2017-Aug-22 18:28N 29°49' E 122°39'7 9.1
2017-Aug-22 17:41N 29°56' E 122°42'35 7.8
2017-Aug-22 13:10N 30°30' E 122°52'2 8.1
2017-Aug-22 12:57N 30°31' E 122°52'6 7.9
2017-Aug-22 12:13N 30°37' E 122°53'4 9.6
2017-Aug-22 11:50N 30°41' E 122°54'  
2017-Aug-19 11:48N 34°36' E 134°54'411.7
2017-Aug-19 11:27N 34°38' E 134°59'511.9
2017-Aug-19 11:00N 34°36' E 135°05'510.4
2017-Aug-19 10:31N 34°36' E 135°11'510.4
2017-Aug-19 10:00N 34°36' E 135°18'5 9.9
2017-Aug-19 09:30N 34°38' E 135°23'2 4.2
2017-Aug-19 09:00N 34°39' E 135°25'0 0.1
2017-Aug-19 08:30N 34°39' E 135°25'0 0.0
2017-Aug-19 08:00N 34°39' E 135°25'0 0.0
2017-Aug-19 07:30N 34°39' E 135°25'0 0.0
2017-Aug-19 07:00N 34°39' E 135°25'0 0.0
2017-Aug-19 06:30N 34°39' E 135°25'0 0.0
2017-Aug-19 06:00N 34°39' E 135°25'0 0.0
2017-Aug-19 05:31N 34°39' E 135°25'0 0.0
2017-Aug-19 05:00N 34°39' E 135°25'0 0.0
2017-Aug-19 04:30N 34°39' E 135°25'0 0.0
2017-Aug-19 04:00N 34°39' E 135°25'0 0.0
2017-Aug-19 03:31N 34°39' E 135°25'0 0.0
2017-Aug-19 03:00N 34°39' E 135°25'0 0.0
2017-Aug-19 02:30N 34°39' E 135°25'0 0.0
2017-Aug-19 02:00N 34°39' E 135°25'0 0.0
2017-Aug-19 01:30N 34°39' E 135°25'0 0.0
2017-Aug-19 01:00N 34°39' E 135°25'0 0.0
2017-Aug-19 00:30N 34°39' E 135°25'0 0.0
2017-Aug-19 00:00N 34°39' E 135°25'0 0.0
2017-Aug-18 23:30N 34°39' E 135°25'0 0.0
2017-Aug-18 23:00N 34°39' E 135°25'0 0.0
2017-Aug-18 22:31N 34°39' E 135°25'0 0.0
2017-Aug-18 22:01N 34°39' E 135°25'0 0.0
2017-Aug-18 21:30N 34°39' E 135°25'0 0.0
2017-Aug-18 20:51N 34°39' E 135°25'0 0.0
2017-Aug-18 20:30N 34°39' E 135°25'0 0.0
2017-Aug-18 20:00N 34°39' E 135°25'0 0.0
2017-Aug-18 19:30N 34°39' E 135°25'0 0.0
2017-Aug-18 19:00N 34°39' E 135°25'0 0.0
2017-Aug-18 18:30N 34°39' E 135°25'0 0.0
2017-Aug-18 18:00N 34°39' E 135°25'0 0.0
2017-Aug-18 17:30N 34°39' E 135°25'0 0.0
2017-Aug-18 17:00N 34°39' E 135°25'0 0.0
2017-Aug-18 16:30N 34°39' E 135°25'0 0.0
2017-Aug-18 16:00N 34°39' E 135°25'0 0.0
2017-Aug-18 15:30N 34°39' E 135°25'0 0.0
2017-Aug-18 15:00N 34°39' E 135°25'0 0.0
2017-Aug-18 14:30N 34°39' E 135°25'0 0.0
2017-Aug-18 13:30N 34°39' E 135°25'0 0.0
2017-Aug-18 13:00N 34°39' E 135°25'0 0.0
2017-Aug-18 12:31N 34°39' E 135°25'0 0.0
2017-Aug-18 12:00N 34°39' E 135°25'0 0.0
2017-Aug-18 11:31N 34°39' E 135°25'0 0.0
2017-Aug-18 11:01N 34°39' E 135°25'0 0.0
2017-Aug-18 10:31N 34°39' E 135°25'0 0.0
2017-Aug-18 10:00N 34°39' E 135°25'0 0.0
2017-Aug-18 09:31N 34°39' E 135°25'0 0.0
2017-Aug-18 09:00N 34°39' E 135°25'0 0.0
2017-Aug-18 08:30N 34°39' E 135°25'0 0.0
2017-Aug-18 08:00N 34°39' E 135°25'0 0.0
2017-Aug-18 07:30N 34°39' E 135°25'0 0.0
2017-Aug-18 07:00N 34°39' E 135°25'0 0.0
2017-Aug-18 06:30N 34°39' E 135°25'0 0.0
2017-Aug-18 05:59N 34°39' E 135°25'0 0.0
2017-Aug-18 05:30N 34°39' E 135°25'0 0.0
2017-Aug-18 05:00N 34°39' E 135°25'0 0.0
2017-Aug-18 04:30N 34°39' E 135°25'0 0.0
2017-Aug-18 04:00N 34°39' E 135°25'0 0.0
2017-Aug-18 03:29N 34°39' E 135°25'0 0.0
2017-Aug-18 03:00N 34°39' E 135°25'0 0.0
2017-Aug-18 02:28N 34°39' E 135°25'0 0.0
2017-Aug-18 01:54N 34°39' E 135°25'0 0.0
2017-Aug-18 01:30N 34°39' E 135°25'0 0.0
2017-Aug-18 01:00N 34°39' E 135°25'0 0.0
2017-Aug-18 00:30N 34°39' E 135°25'0 0.0
2017-Aug-18 00:01N 34°39' E 135°25'0 0.0
2017-Aug-17 23:30N 34°39' E 135°25'0 0.0
2017-Aug-17 23:01N 34°39' E 135°25'0 0.0
2017-Aug-17 22:30N 34°39' E 135°25'1 2.2
2017-Aug-17 22:00N 34°39' E 135°24'2 3.6
2017-Aug-17 21:30N 34°37' E 135°23'0 0.0
2017-Aug-17 21:01N 34°37' E 135°23'0 0.0
2017-Aug-17 20:30N 34°37' E 135°23'0 0.0
2017-Aug-17 20:00N 34°37' E 135°23'0 0.0
2017-Aug-17 19:30N 34°37' E 135°23'0 0.0
2017-Aug-17 19:01N 34°37' E 135°23'0 0.0
2017-Aug-17 18:30N 34°37' E 135°23'0 0.0
2017-Aug-17 18:01N 34°37' E 135°23'0 0.0
2017-Aug-17 17:30N 34°37' E 135°23'0 0.1
2017-Aug-17 17:01N 34°37' E 135°23'0 0.1
2017-Aug-17 16:31N 34°37' E 135°23'3 6.6
2017-Aug-17 16:00N 34°36' E 135°19'510.5
2017-Aug-17 15:30N 34°35' E 135°13'611.0
2017-Aug-17 15:00N 34°35' E 135°06'611.9
2017-Aug-17 14:27N 34°37' E 134°58'  

Dump ship's entire track history